createdAt,value
2018-10-02T00:00:51.573Z,65.10
2018-10-02T00:03:20.705Z,64.56
2018-10-02T00:05:49.971Z,65.00
2018-10-02T00:08:19.050Z,64.66
2018-10-02T00:10:53.663Z,64.73
2018-10-02T00:13:28.112Z,64.93
2018-10-02T00:15:57.525Z,64.02
2018-10-02T00:18:26.641Z,64.27
2018-10-02T00:20:55.786Z,64.55
2018-10-02T00:23:24.933Z,64.53
2018-10-02T00:25:54.139Z,65.16
2018-10-02T00:28:23.591Z,64.88
2018-10-02T00:30:52.713Z,64.42
2018-10-02T00:33:21.883Z,64.88
2018-10-02T00:35:51.117Z,64.86
2018-10-02T00:38:20.635Z,64.74
2018-10-02T00:40:49.824Z,65.06
2018-10-02T00:43:19.166Z,64.56
2018-10-02T00:45:48.696Z,65.20
2018-10-02T00:48:18.030Z,64.80
2018-10-02T00:50:47.391Z,65.25
2018-10-02T00:53:16.622Z,65.08
2018-10-02T00:55:45.742Z,65.05
2018-10-02T00:58:14.925Z,64.99
2018-10-02T01:00:44.100Z,65.35
2018-10-02T01:03:13.110Z,65.56
2018-10-02T01:05:42.226Z,65.02
2018-10-02T01:08:11.421Z,65.35
2018-10-02T01:10:40.517Z,65.07
2018-10-02T01:13:09.697Z,66.31
2018-10-02T01:15:38.896Z,65.45
2018-10-02T01:18:08.092Z,64.55
2018-10-02T01:20:37.259Z,64.66
2018-10-02T01:23:06.393Z,65.15
2018-10-02T01:25:35.501Z,65.07
2018-10-02T01:28:04.704Z,64.93
2018-10-02T01:30:33.801Z,64.70
2018-10-02T01:33:03.298Z,64.51
2018-10-02T01:35:32.507Z,64.25
2018-10-02T01:38:01.679Z,64.67
2018-10-02T01:40:31.001Z,64.43
2018-10-02T01:43:00.177Z,64.51
2018-10-02T01:45:29.366Z,64.45
2018-10-02T01:47:58.785Z,64.51
2018-10-02T01:50:27.901Z,64.95
2018-10-02T01:52:57.056Z,64.27
2018-10-02T01:55:26.327Z,65.23
2018-10-02T01:57:55.699Z,64.70
2018-10-02T02:00:24.889Z,64.74
2018-10-02T02:02:54.072Z,64.84
2018-10-02T02:05:23.534Z,65.13
2018-10-02T02:07:52.997Z,64.80
2018-10-02T02:10:22.366Z,65.17
2018-10-02T02:12:51.850Z,65.17
2018-10-02T02:15:21.085Z,64.64
2018-10-02T02:17:50.280Z,64.40
2018-10-02T02:20:19.687Z,64.15
2018-10-02T02:22:49.215Z,64.30
2018-10-02T02:25:18.677Z,63.75
2018-10-02T02:27:48.212Z,63.49
2018-10-02T02:30:17.576Z,64.13
2018-10-02T02:32:47.013Z,63.29
2018-10-02T02:35:16.203Z,62.75
2018-10-02T02:37:45.381Z,62.87
2018-10-02T02:40:14.418Z,62.08
2018-10-02T02:42:43.702Z,63.33
2018-10-02T02:45:12.866Z,63.12
2018-10-02T02:47:47.023Z,68.88
2018-10-02T02:50:21.118Z,69.11
2018-10-02T02:52:54.346Z,68.09
2018-10-02T02:55:23.429Z,69.66
2018-10-02T02:57:52.771Z,68.70
2018-10-02T03:00:22.227Z,67.50
2018-10-02T03:02:51.777Z,67.38
2018-10-02T03:05:21.293Z,67.35
2018-10-02T03:07:50.635Z,68.73
2018-10-02T03:10:20.113Z,67.73
2018-10-02T03:12:49.450Z,66.86
2018-10-02T03:15:18.562Z,65.43
2018-10-02T03:17:47.889Z,64.96
2018-10-02T03:20:17.300Z,64.52
2018-10-02T03:22:46.644Z,66.73
2018-10-02T03:25:16.126Z,65.80
2018-10-02T03:27:45.447Z,65.96
2018-10-02T03:30:14.901Z,65.63
2018-10-02T03:32:44.257Z,64.58
2018-10-02T03:35:13.639Z,64.50
2018-10-02T03:37:43.090Z,65.13
2018-10-02T03:40:12.816Z,66.12
2018-10-02T03:42:42.268Z,65.21
2018-10-02T03:45:11.747Z,64.87
2018-10-02T03:47:41.190Z,65.04
2018-10-02T03:50:10.668Z,64.55
2018-10-02T03:52:40.202Z,66.19
2018-10-02T03:55:09.567Z,69.74
2018-10-02T03:57:39.005Z,70.37
2018-10-02T04:00:08.356Z,67.90
2018-10-02T04:02:37.859Z,69.25
2018-10-02T04:05:07.206Z,69.64
2018-10-02T04:07:36.511Z,70.87
2018-10-02T04:10:05.983Z,69.37
2018-10-02T04:12:35.422Z,68.54
2018-10-02T04:15:04.897Z,67.83
2018-10-02T04:17:34.353Z,67.16
2018-10-02T04:20:03.833Z,67.00
2018-10-02T04:22:33.227Z,66.89
2018-10-02T04:25:02.661Z,65.97
2018-10-02T04:27:32.120Z,65.67
2018-10-02T04:30:01.555Z,65.86
2018-10-02T04:32:30.957Z,65.71
2018-10-02T04:35:00.352Z,65.94
2018-10-02T04:37:29.787Z,66.91
2018-10-02T04:39:59.376Z,66.33
2018-10-02T04:42:28.479Z,65.95
2018-10-02T04:44:57.686Z,65.84
2018-10-02T04:47:26.999Z,65.91
2018-10-02T04:49:56.464Z,65.59
2018-10-02T04:52:25.629Z,64.92
2018-10-02T04:54:54.984Z,64.51
2018-10-02T04:57:24.317Z,65.11
2018-10-02T04:59:53.791Z,65.58
2018-10-02T05:02:23.201Z,65.86
2018-10-02T05:04:52.532Z,65.89
2018-10-02T05:07:22.080Z,64.86
2018-10-02T05:09:51.497Z,65.55
2018-10-02T05:12:20.869Z,66.36
2018-10-02T05:14:50.202Z,67.27
2018-10-02T05:17:19.478Z,66.98
2018-10-02T05:19:48.893Z,66.55
2018-10-02T05:22:18.039Z,66.89
2018-10-02T05:24:47.287Z,66.65
2018-10-02T05:27:16.463Z,65.43
2018-10-02T05:29:45.847Z,66.27
2018-10-02T05:32:15.155Z,67.42
2018-10-02T05:34:44.416Z,65.63
2018-10-02T05:37:13.551Z,67.06
2018-10-02T05:39:42.793Z,67.70
2018-10-02T05:42:11.979Z,66.61
2018-10-02T05:44:41.266Z,66.64
2018-10-02T05:47:10.514Z,66.87
2018-10-02T05:49:40.014Z,65.68
2018-10-02T05:52:09.413Z,66.19
2018-10-02T05:54:38.869Z,66.50
2018-10-02T05:57:08.406Z,66.86
2018-10-02T05:59:37.653Z,65.01
2018-10-02T06:02:07.206Z,65.63
2018-10-02T06:04:36.681Z,66.57
2018-10-02T06:07:06.101Z,65.31
2018-10-02T06:09:35.438Z,65.00
2018-10-02T06:12:04.839Z,66.33
2018-10-02T06:14:34.205Z,66.47
2018-10-02T06:17:03.561Z,66.94
2018-10-02T06:19:32.950Z,65.70
2018-10-02T06:22:02.517Z,65.87
2018-10-02T06:24:31.868Z,67.06
2018-10-02T06:27:01.799Z,65.99
2018-10-02T06:29:30.869Z,66.72
2018-10-02T06:32:00.407Z,65.65
2018-10-02T06:34:29.839Z,64.75
2018-10-02T06:37:00.131Z,65.30
2018-10-02T06:39:32.102Z,65.37
2018-10-02T06:42:02.138Z,65.91
2018-10-02T06:44:33.348Z,66.32
2018-10-02T06:47:02.832Z,65.98
2018-10-02T06:49:32.347Z,65.12
2018-10-02T06:52:01.902Z,66.48
2018-10-02T06:54:31.310Z,66.22
2018-10-02T06:57:00.773Z,65.45
2018-10-02T06:59:30.026Z,65.56
2018-10-02T07:01:59.478Z,66.18
2018-10-02T07:04:29.038Z,65.33
2018-10-02T07:06:58.822Z,64.59
2018-10-02T07:09:28.131Z,65.54
2018-10-02T07:11:57.502Z,64.82
2018-10-02T07:14:26.984Z,64.50
2018-10-02T07:16:56.214Z,64.57
2018-10-02T07:19:25.486Z,65.69
2018-10-02T07:21:54.811Z,64.89
2018-10-02T07:24:24.107Z,64.94
2018-10-02T07:26:53.715Z,63.99
2018-10-02T07:29:22.514Z,63.80
2018-10-02T07:31:51.508Z,62.96
2018-10-02T07:34:20.488Z,63.41
2018-10-02T07:36:49.850Z,63.17
2018-10-02T07:39:19.147Z,64.14
2018-10-02T07:41:48.524Z,63.44
2018-10-02T07:44:17.870Z,63.40
2018-10-02T07:46:46.964Z,62.80
2018-10-02T07:49:16.182Z,63.00
2018-10-02T07:51:45.389Z,63.19
2018-10-02T07:54:15.049Z,62.49
2018-10-02T07:56:44.153Z,62.96
2018-10-02T07:59:13.258Z,62.36
2018-10-02T08:01:42.416Z,64.05
2018-10-02T08:04:11.669Z,64.55
2018-10-02T08:06:41.109Z,64.00
2018-10-02T08:09:12.029Z,64.95
2018-10-02T08:11:41.396Z,64.64
2018-10-02T08:14:10.680Z,63.56
2018-10-02T08:16:40.514Z,64.70
2018-10-02T08:19:09.481Z,64.88
2018-10-02T08:21:38.634Z,65.31
2018-10-02T08:24:07.850Z,66.61
2018-10-02T08:26:37.254Z,66.46
2018-10-02T08:29:06.536Z,67.36
2018-10-02T08:31:35.839Z,67.03
2018-10-02T08:34:04.986Z,66.91
2018-10-02T08:36:34.318Z,66.80
2018-10-02T08:39:03.849Z,65.79
2018-10-02T08:41:32.946Z,67.41
2018-10-02T08:44:02.086Z,65.54
2018-10-02T08:46:31.534Z,64.75
2018-10-02T08:49:00.542Z,64.17
2018-10-02T08:51:30.186Z,65.56
2018-10-02T08:53:59.570Z,66.42
2018-10-02T08:56:28.528Z,67.38
2018-10-02T08:58:57.635Z,66.92
2018-10-02T09:01:26.930Z,66.23
2018-10-02T09:03:55.849Z,66.24
2018-10-02T09:06:24.964Z,65.79
2018-10-02T09:08:53.894Z,66.55
2018-10-02T09:11:23.111Z,64.54
2018-10-02T09:13:52.161Z,64.31
2018-10-02T09:16:21.444Z,64.60
2018-10-02T09:18:50.889Z,62.98
2018-10-02T09:21:20.158Z,63.28
2018-10-02T09:23:49.334Z,63.89
2018-10-02T09:26:18.319Z,64.45
2018-10-02T09:28:47.326Z,62.94
2018-10-02T09:31:21.420Z,63.37
2018-10-02T09:33:55.510Z,63.50
2018-10-02T09:36:29.754Z,63.18
2018-10-02T09:39:03.985Z,62.95
2018-10-02T09:41:38.288Z,62.72
2018-10-02T09:44:07.626Z,64.10
2018-10-02T09:46:36.751Z,62.16
2018-10-02T09:49:06.093Z,63.29
2018-10-02T09:51:35.482Z,62.15
2018-10-02T09:54:04.750Z,62.44
2018-10-02T09:56:39.178Z,61.84
2018-10-02T09:59:08.438Z,61.88
2018-10-02T10:01:42.604Z,62.62
2018-10-02T10:04:11.834Z,62.54
2018-10-02T10:06:40.900Z,61.98
2018-10-02T10:09:10.990Z,62.78
2018-10-02T10:11:40.552Z,62.67
2018-10-02T10:14:10.201Z,63.56
2018-10-02T10:16:39.687Z,63.62
2018-10-02T10:19:08.707Z,63.99
2018-10-02T10:21:38.093Z,65.23
2018-10-02T10:24:07.246Z,64.38
2018-10-02T10:26:36.701Z,64.29
2018-10-02T10:29:05.967Z,66.27
2018-10-02T10:31:35.225Z,66.79
2018-10-02T10:34:04.282Z,68.58
2018-10-02T10:36:33.253Z,69.67
2018-10-02T10:39:02.630Z,70.80
2018-10-02T10:41:31.813Z,71.47
2018-10-02T10:44:01.031Z,70.72
2018-10-02T10:46:30.006Z,71.27
2018-10-02T10:48:58.985Z,71.84
2018-10-02T10:51:27.893Z,70.86
2018-10-02T10:53:57.030Z,70.47
2018-10-02T10:56:25.997Z,71.46
2018-10-02T10:58:55.017Z,69.61
2018-10-02T11:01:23.943Z,69.10
2018-10-02T11:03:53.000Z,69.93
2018-10-02T11:06:21.956Z,71.40
2018-10-02T11:08:50.906Z,70.73
2018-10-02T11:11:19.836Z,72.77
2018-10-02T11:13:48.832Z,73.90
2018-10-02T11:16:17.776Z,74.72
2018-10-02T11:18:46.749Z,74.35
2018-10-02T11:21:15.740Z,76.04
2018-10-02T11:23:44.784Z,76.13
2018-10-02T11:26:13.659Z,75.83
2018-10-02T11:28:42.600Z,76.15
2018-10-02T11:31:11.567Z,75.96
2018-10-02T11:33:40.502Z,75.51
2018-10-02T11:36:09.418Z,76.57
2018-10-02T11:38:38.404Z,76.92
2018-10-02T11:41:08.405Z,76.46
2018-10-02T11:43:37.516Z,74.96
2018-10-02T11:46:06.425Z,75.94
2018-10-02T11:48:35.350Z,76.62
2018-10-02T11:51:04.421Z,77.88
2018-10-02T11:53:33.350Z,78.92
2018-10-02T11:56:02.281Z,79.13
2018-10-02T11:58:31.217Z,80.56
2018-10-02T12:01:00.215Z,80.81
2018-10-02T12:03:29.171Z,80.71
2018-10-02T12:05:58.184Z,79.75
2018-10-02T12:08:27.133Z,81.20
2018-10-02T12:10:56.057Z,81.06
2018-10-02T12:13:25.125Z,80.89
2018-10-02T12:15:54.026Z,81.64
2018-10-02T12:18:22.978Z,80.44
2018-10-02T12:20:51.923Z,81.77
2018-10-02T12:23:20.911Z,81.48
2018-10-02T12:25:49.829Z,80.79
2018-10-02T12:28:18.873Z,81.27
2018-10-02T12:30:47.789Z,81.57
2018-10-02T12:33:16.730Z,81.28
2018-10-02T12:35:45.653Z,81.71
2018-10-02T12:38:16.969Z,82.11
2018-10-02T12:40:45.882Z,82.72
2018-10-02T12:43:15.202Z,81.12
2018-10-02T12:45:44.391Z,82.70
2018-10-02T12:48:13.630Z,81.94
2018-10-02T12:50:42.633Z,81.94
2018-10-02T12:53:11.632Z,82.24
2018-10-02T12:55:40.710Z,82.49
2018-10-02T12:58:09.708Z,82.20
2018-10-02T13:00:38.676Z,81.38
2018-10-02T13:03:07.646Z,81.90
2018-10-02T13:05:36.688Z,81.18
2018-10-02T13:08:05.637Z,79.57
2018-10-02T13:10:34.587Z,80.02
2018-10-02T13:13:03.542Z,80.17
2018-10-02T13:15:32.518Z,80.20
2018-10-02T13:18:01.509Z,80.67
2018-10-02T13:20:30.443Z,80.45
2018-10-02T13:22:59.407Z,80.58
2018-10-02T13:25:28.482Z,81.59
2018-10-02T13:27:57.395Z,80.57
2018-10-02T13:30:26.475Z,80.42
2018-10-02T13:32:55.370Z,79.15
2018-10-02T13:35:24.358Z,80.28
2018-10-02T13:37:53.345Z,81.58
2018-10-02T13:40:22.926Z,79.93
2018-10-02T13:42:52.830Z,80.84
2018-10-02T13:45:22.237Z,80.53
2018-10-02T13:47:51.579Z,80.38
2018-10-02T13:50:20.553Z,80.53
2018-10-02T13:52:49.503Z,79.86
2018-10-02T13:55:18.735Z,79.81
2018-10-02T13:57:47.671Z,81.21
2018-10-02T14:00:16.637Z,80.30
2018-10-02T14:02:45.567Z,80.40
2018-10-02T14:05:14.738Z,78.81
2018-10-02T14:07:43.711Z,79.35
2018-10-02T14:10:12.678Z,79.01
2018-10-02T14:12:41.618Z,79.52
2018-10-02T14:15:10.583Z,78.70
2018-10-02T14:17:39.497Z,78.83
2018-10-02T14:20:08.498Z,78.85
2018-10-02T14:22:37.442Z,78.56
2018-10-02T14:25:06.414Z,79.51
2018-10-02T14:27:35.398Z,78.17
2018-10-02T14:30:04.472Z,76.83
2018-10-02T14:32:33.502Z,77.20
2018-10-02T14:35:02.486Z,76.86
2018-10-02T14:37:31.427Z,77.05
2018-10-02T14:40:00.393Z,76.52
2018-10-02T14:42:29.431Z,75.49
2018-10-02T14:44:58.516Z,75.07
2018-10-02T14:47:27.476Z,75.56
2018-10-02T14:49:56.449Z,74.79
2018-10-02T14:52:26.301Z,75.65
2018-10-02T14:54:55.267Z,75.12
2018-10-02T14:57:24.225Z,75.50
2018-10-02T14:59:53.256Z,74.34
2018-10-02T15:02:22.178Z,74.44
2018-10-02T15:04:51.219Z,73.80
2018-10-02T15:07:20.546Z,74.62
2018-10-02T15:09:49.478Z,75.17
2018-10-02T15:12:18.427Z,74.40
2018-10-02T15:14:47.442Z,74.13
2018-10-02T15:17:16.393Z,74.38
2018-10-02T15:19:45.369Z,75.31
2018-10-02T15:22:14.326Z,74.73
2018-10-02T15:24:43.295Z,75.27
2018-10-02T15:27:12.318Z,75.20
2018-10-02T15:29:41.325Z,76.17
2018-10-02T15:32:10.257Z,75.51
2018-10-02T15:34:39.231Z,76.17
2018-10-02T15:37:08.275Z,76.12
2018-10-02T15:39:37.265Z,76.27
2018-10-02T15:42:06.337Z,76.50
2018-10-02T15:44:35.333Z,75.92
2018-10-02T15:47:04.321Z,76.30
2018-10-02T15:49:33.305Z,76.88
2018-10-02T15:52:02.562Z,76.83
2018-10-02T15:54:31.646Z,76.31
2018-10-02T15:57:00.607Z,76.57
2018-10-02T15:59:29.627Z,77.32
2018-10-02T16:01:58.558Z,77.58
2018-10-02T16:04:27.826Z,77.62
2018-10-02T16:06:56.783Z,77.12
2018-10-02T16:09:25.758Z,77.02
2018-10-02T16:11:54.805Z,77.07
2018-10-02T16:14:23.734Z,78.39
2018-10-02T16:16:52.746Z,78.65
2018-10-02T16:19:21.727Z,79.13
2018-10-02T16:21:51.329Z,78.77
2018-10-02T16:24:20.307Z,77.96
2018-10-02T16:26:49.780Z,77.35
2018-10-02T16:29:18.746Z,76.81
2018-10-02T16:31:50.099Z,77.87
2018-10-02T16:34:19.302Z,77.05
2018-10-02T16:36:48.395Z,76.65
2018-10-02T16:39:17.323Z,77.34
2018-10-02T16:41:47.359Z,76.40
2018-10-02T16:44:16.293Z,76.37
2018-10-02T16:46:45.390Z,76.58
2018-10-02T16:49:14.379Z,77.53
2018-10-02T16:51:43.457Z,76.90
2018-10-02T16:54:12.510Z,77.46
2018-10-02T16:56:41.510Z,77.58
2018-10-02T16:59:10.499Z,76.97
2018-10-02T17:01:39.446Z,76.93
2018-10-02T17:04:09.143Z,76.89
2018-10-02T17:06:38.115Z,77.93
2018-10-02T17:09:08.249Z,77.14
2018-10-02T17:11:37.289Z,77.21
2018-10-02T17:14:06.246Z,77.52
2018-10-02T17:16:35.281Z,77.17
2018-10-02T17:19:04.255Z,77.24
2018-10-02T17:21:35.078Z,76.90
2018-10-02T17:24:04.361Z,77.74
2018-10-02T17:26:33.386Z,77.89
2018-10-02T17:29:02.954Z,77.64
2018-10-02T17:31:32.256Z,77.46
2018-10-02T17:34:01.242Z,77.52
2018-10-02T17:36:30.276Z,77.37
2018-10-02T17:38:59.206Z,77.57
2018-10-02T17:41:28.308Z,77.26
2018-10-02T17:43:57.539Z,78.01
2018-10-02T17:46:26.823Z,77.24
2018-10-02T17:48:56.260Z,76.86
2018-10-02T17:51:25.540Z,76.70
2018-10-02T17:53:54.491Z,77.19
2018-10-02T17:56:23.453Z,77.55
2018-10-02T17:58:52.410Z,77.73
2018-10-02T18:01:21.955Z,77.02
2018-10-02T18:03:51.558Z,76.86
2018-10-02T18:06:20.860Z,77.14
2018-10-02T18:08:49.816Z,77.28
2018-10-02T18:11:19.695Z,77.04
2018-10-02T18:13:49.347Z,77.00
2018-10-02T18:16:18.605Z,76.62
2018-10-02T18:18:47.810Z,77.01
2018-10-02T18:21:17.214Z,77.24
2018-10-02T18:23:46.155Z,77.54
2018-10-02T18:26:15.148Z,77.17
2018-10-02T18:28:44.058Z,76.88
2018-10-02T18:31:13.017Z,76.88
2018-10-02T18:33:41.939Z,76.61
2018-10-02T18:36:11.110Z,76.78
2018-10-02T18:38:40.126Z,77.35
2018-10-02T18:41:09.116Z,77.16
2018-10-02T18:43:38.057Z,76.74
2018-10-02T18:46:07.150Z,76.69
2018-10-02T18:48:36.104Z,76.61
2018-10-02T18:51:05.089Z,76.41
2018-10-02T18:53:34.315Z,76.33
2018-10-02T18:56:03.701Z,76.12
2018-10-02T18:58:32.632Z,75.79
2018-10-02T19:01:01.642Z,76.23
2018-10-02T19:03:30.862Z,76.55
2018-10-02T19:06:01.933Z,76.07
2018-10-02T19:08:36.078Z,75.96
2018-10-02T19:11:10.118Z,76.53
2018-10-02T19:13:39.086Z,75.99
2018-10-02T19:16:13.550Z,76.37
2018-10-02T19:18:42.540Z,76.48
2018-10-02T19:21:14.318Z,76.95
2018-10-02T19:23:43.240Z,76.41
2018-10-02T19:26:17.398Z,76.29
2018-10-02T19:28:46.313Z,76.97
2018-10-02T19:31:20.507Z,76.90
2018-10-02T19:33:49.777Z,77.69
2018-10-02T19:36:19.130Z,78.03
2018-10-02T19:38:50.937Z,77.74
2018-10-02T19:41:20.006Z,77.82
2018-10-02T19:43:48.946Z,77.49
2018-10-02T19:47:24.984Z,77.24
2018-10-02T19:49:54.113Z,77.68
2018-10-02T19:52:23.137Z,77.41
2018-10-02T19:54:52.078Z,77.44
2018-10-02T19:57:21.277Z,78.00
2018-10-02T19:59:50.249Z,77.35
2018-10-02T20:02:19.313Z,77.84
2018-10-02T20:04:48.373Z,77.91
2018-10-02T20:07:18.031Z,77.88
2018-10-02T20:09:47.187Z,77.38
2018-10-02T20:12:16.129Z,77.15
2018-10-02T20:14:45.059Z,76.63
2018-10-02T20:17:14.605Z,77.75
2018-10-02T20:19:43.558Z,77.28
2018-10-02T20:22:12.940Z,77.09
2018-10-02T20:24:41.876Z,77.62
2018-10-02T20:27:11.662Z,76.95
2018-10-02T20:29:40.634Z,76.98
2018-10-02T20:32:09.982Z,77.47
2018-10-02T20:34:39.089Z,76.61
2018-10-02T20:37:08.078Z,77.09
2018-10-02T20:39:37.133Z,77.99
2018-10-02T20:42:06.386Z,77.97
2018-10-02T20:44:35.326Z,77.93
2018-10-02T20:47:04.616Z,77.97
2018-10-02T20:49:33.690Z,78.70
2018-10-02T20:52:02.654Z,78.55
2018-10-02T20:54:31.682Z,78.15
2018-10-02T20:57:00.642Z,78.37
2018-10-02T20:59:29.522Z,78.05
2018-10-02T21:01:58.477Z,78.51
2018-10-02T21:04:27.387Z,77.79
2018-10-02T21:06:56.308Z,77.89
2018-10-02T21:09:25.283Z,77.94
2018-10-02T21:11:54.233Z,77.58
2018-10-02T21:14:23.229Z,78.16
2018-10-02T21:16:52.250Z,78.42
2018-10-02T21:19:21.226Z,78.67
2018-10-02T21:21:50.236Z,78.70
2018-10-02T21:24:19.234Z,78.86
2018-10-02T21:26:48.146Z,78.72
2018-10-02T21:29:17.874Z,78.81
2018-10-02T21:31:46.948Z,78.17
2018-10-02T21:34:15.841Z,77.40
2018-10-02T21:36:44.960Z,78.01
2018-10-02T21:39:14.020Z,77.81
2018-10-02T21:41:42.986Z,77.82
2018-10-02T21:44:11.957Z,77.76
2018-10-02T21:46:41.450Z,78.93
2018-10-02T21:49:11.125Z,78.80
2018-10-02T21:51:40.056Z,79.48
2018-10-02T21:54:09.029Z,78.85
2018-10-02T21:56:37.996Z,79.45
2018-10-02T21:59:07.300Z,79.20
2018-10-02T22:01:36.284Z,78.92
2018-10-02T22:04:06.047Z,78.13
2018-10-02T22:06:35.647Z,78.54
2018-10-02T22:09:05.957Z,78.47
2018-10-02T22:11:35.297Z,79.33
2018-10-02T22:14:04.274Z,79.59
2018-10-02T22:16:33.243Z,79.70
2018-10-02T22:19:02.718Z,79.03
2018-10-02T22:21:31.727Z,79.46
2018-10-02T22:24:00.868Z,78.96
2018-10-02T22:26:29.840Z,78.93
2018-10-02T22:28:59.267Z,78.56
2018-10-02T22:31:28.480Z,78.28
2018-10-02T22:33:57.469Z,78.41
2018-10-02T22:36:26.397Z,79.79
2018-10-02T22:38:55.348Z,78.89
2018-10-02T22:41:24.466Z,78.56
2018-10-02T22:43:53.506Z,79.16
2018-10-02T22:46:22.450Z,79.14
2018-10-02T22:48:51.398Z,79.82
2018-10-02T22:51:20.329Z,79.89
2018-10-02T22:53:49.286Z,79.17
2018-10-02T22:56:18.215Z,79.17
2018-10-02T22:58:47.202Z,79.19
2018-10-02T23:01:16.156Z,78.59
2018-10-02T23:03:45.165Z,79.09
2018-10-02T23:06:14.113Z,78.75
2018-10-02T23:08:43.077Z,78.81
2018-10-02T23:11:11.976Z,78.56
2018-10-02T23:13:41.057Z,79.24
2018-10-02T23:16:09.991Z,78.88
2018-10-02T23:18:38.930Z,78.84
2018-10-02T23:21:07.877Z,79.68
2018-10-02T23:23:36.871Z,78.92
2018-10-02T23:26:05.793Z,78.56
2018-10-02T23:28:34.766Z,79.56
2018-10-02T23:31:03.722Z,79.01
2018-10-02T23:33:32.694Z,79.16
2018-10-02T23:36:01.796Z,78.95
2018-10-02T23:38:30.743Z,79.57
2018-10-02T23:40:59.779Z,79.69
2018-10-02T23:43:28.883Z,79.49
2018-10-02T23:45:58.507Z,79.97
2018-10-02T23:48:27.986Z,79.62
2018-10-02T23:50:57.562Z,79.27
2018-10-02T23:53:27.526Z,78.99
2018-10-02T23:55:57.167Z,79.21
2018-10-02T23:58:26.837Z,80.54
